createdAt,value
2023-04-25T00:01:25.216Z,11.53
2023-04-25T00:03:53.633Z,11.39
2023-04-25T00:06:22.163Z,11.41
2023-04-25T00:08:50.364Z,11.45
2023-04-25T00:11:19.593Z,11.61
2023-04-25T00:13:47.867Z,11.77
2023-04-25T00:16:16.843Z,11.59
2023-04-25T00:18:44.985Z,11.82
2023-04-25T00:21:13.107Z,11.83
2023-04-25T00:23:41.103Z,11.56
2023-04-25T00:26:09.073Z,11.56
2023-04-25T00:28:38.586Z,11.48
2023-04-25T00:31:06.658Z,11.54
2023-04-25T00:33:34.678Z,11.63
2023-04-25T00:36:02.770Z,11.61
2023-04-25T00:38:30.684Z,11.53
2023-04-25T00:40:58.688Z,11.67
2023-04-25T00:43:28.210Z,11.67
2023-04-25T00:45:58.897Z,11.90
2023-04-25T00:48:26.797Z,11.95
2023-04-25T00:50:58.180Z,11.92
2023-04-25T00:53:27.640Z,12.05
2023-04-25T00:55:56.439Z,12.11
2023-04-25T00:58:24.852Z,12.13
2023-04-25T01:00:54.060Z,12.04
2023-04-25T01:03:23.947Z,12.10
2023-04-25T01:05:53.165Z,11.69
2023-04-25T01:08:22.684Z,11.74
2023-04-25T01:10:50.613Z,11.58
2023-04-25T01:13:18.884Z,11.57
2023-04-25T01:15:46.830Z,11.70
2023-04-25T01:18:14.985Z,11.95
2023-04-25T01:20:45.386Z,11.73
2023-04-25T01:23:15.669Z,11.56
2023-04-25T01:25:44.126Z,11.76
2023-04-25T01:28:12.271Z,11.76
2023-04-25T01:30:41.079Z,11.85
2023-04-25T01:33:10.519Z,11.74
2023-04-25T01:35:38.623Z,11.73
2023-04-25T01:38:06.549Z,12.05
2023-04-25T01:40:36.958Z,12.19
2023-04-25T01:43:05.152Z,12.17
2023-04-25T01:45:34.050Z,12.17
2023-04-25T01:48:02.161Z,11.99
2023-04-25T01:50:30.334Z,11.85
2023-04-25T01:52:59.173Z,11.78
2023-04-25T01:55:27.108Z,11.92
2023-04-25T01:57:56.437Z,11.80
2023-04-25T02:00:24.856Z,11.85
2023-04-25T02:02:54.552Z,11.95
2023-04-25T02:05:22.678Z,11.95
2023-04-25T02:07:51.276Z,12.11
2023-04-25T02:10:19.191Z,12.13
2023-04-25T02:12:47.030Z,11.90
2023-04-25T02:15:16.454Z,12.06
2023-04-25T02:17:46.217Z,11.90
2023-04-25T02:20:14.379Z,11.88
2023-04-25T02:22:42.940Z,11.84
2023-04-25T02:25:12.641Z,11.71
2023-04-25T02:27:40.659Z,11.70
2023-04-25T02:30:09.624Z,11.79
2023-04-25T02:32:39.049Z,11.85
2023-04-25T02:35:07.920Z,11.78
2023-04-25T02:37:37.393Z,11.84
2023-04-25T02:40:06.159Z,11.85
2023-04-25T02:42:34.320Z,11.97
2023-04-25T02:45:02.253Z,11.93
2023-04-25T02:47:30.424Z,11.89
2023-04-25T02:49:59.854Z,11.80
2023-04-25T02:52:27.817Z,11.75
2023-04-25T02:54:55.740Z,11.77
2023-04-25T02:57:23.711Z,11.67
2023-04-25T02:59:51.675Z,11.70
2023-04-25T03:02:19.650Z,11.66
2023-04-25T03:04:47.883Z,11.73
2023-04-25T03:07:17.202Z,11.62
2023-04-25T03:09:45.109Z,11.60
2023-04-25T03:12:13.043Z,11.51
2023-04-25T03:14:40.984Z,11.49
2023-04-25T03:17:08.943Z,11.64
2023-04-25T03:19:36.850Z,11.78
2023-04-25T03:22:04.820Z,11.66
2023-04-25T03:24:34.177Z,11.52
2023-04-25T03:27:02.394Z,11.31
2023-04-25T03:29:30.348Z,11.57
2023-04-25T03:31:58.314Z,11.50
2023-04-25T03:34:27.081Z,11.45
2023-04-25T03:36:54.948Z,11.45
2023-04-25T03:39:22.936Z,11.69
2023-04-25T03:41:52.337Z,11.42
2023-04-25T03:44:20.380Z,11.37
2023-04-25T03:46:48.217Z,11.38
2023-04-25T03:49:18.667Z,11.45
2023-04-25T03:51:47.393Z,11.48
2023-04-25T03:54:15.373Z,11.24
2023-04-25T03:56:43.296Z,11.31
2023-04-25T03:59:12.619Z,11.42
2023-04-25T04:01:40.574Z,11.48
2023-04-25T04:04:08.744Z,11.54
2023-04-25T04:06:37.469Z,11.36
2023-04-25T04:09:05.688Z,11.39
2023-04-25T04:11:33.634Z,11.40
2023-04-25T04:14:01.607Z,11.69
2023-04-25T04:16:32.527Z,11.80
2023-04-25T04:19:01.862Z,11.94
2023-04-25T04:21:29.792Z,11.94
2023-04-25T04:23:58.758Z,11.82
2023-04-25T04:26:27.181Z,12.02
2023-04-25T04:28:55.484Z,12.01
2023-04-25T04:31:23.596Z,12.11
2023-04-25T04:33:53.254Z,12.40
2023-04-25T04:36:23.038Z,12.43
2023-04-25T04:38:51.155Z,12.46
2023-04-25T04:41:20.609Z,12.28
2023-04-25T04:43:48.750Z,12.22
2023-04-25T04:46:17.414Z,12.10
2023-04-25T04:48:45.641Z,12.02
2023-04-25T04:51:15.036Z,11.97
2023-04-25T04:53:42.907Z,12.16
2023-04-25T04:56:10.785Z,12.22
2023-04-25T04:58:38.841Z,12.16
2023-04-25T05:01:07.231Z,12.08
2023-04-25T05:03:35.430Z,12.06
2023-04-25T05:06:03.539Z,12.00
2023-04-25T05:08:32.797Z,12.04
2023-04-25T05:11:00.758Z,11.97
2023-04-25T05:13:28.618Z,12.05
2023-04-25T05:15:56.709Z,12.15
2023-04-25T05:18:24.904Z,12.33
2023-04-25T05:20:52.917Z,12.57
2023-04-25T05:23:20.876Z,12.79
2023-04-25T05:25:50.097Z,12.88
2023-04-25T05:28:18.095Z,12.95
2023-04-25T05:30:46.195Z,12.93
2023-04-25T05:33:14.126Z,12.58
2023-04-25T05:35:42.594Z,12.44
2023-04-25T05:38:10.585Z,12.48
2023-04-25T05:40:38.568Z,12.50
2023-04-25T05:43:08.300Z,12.42
2023-04-25T05:45:36.459Z,12.32
2023-04-25T05:48:04.585Z,12.20
2023-04-25T05:50:32.609Z,12.23
2023-04-25T05:53:00.556Z,12.37
2023-04-25T05:55:29.582Z,12.72
2023-04-25T05:57:57.628Z,12.47
2023-04-25T06:00:27.339Z,12.51
2023-04-25T06:02:55.389Z,12.31
2023-04-25T06:05:23.694Z,12.39
2023-04-25T06:07:51.732Z,12.53
2023-04-25T06:10:19.679Z,12.92
2023-04-25T06:12:47.649Z,12.93
2023-04-25T06:15:28.082Z,13.07
2023-04-25T06:17:58.350Z,13.52
2023-04-25T06:20:26.592Z,13.05
2023-04-25T06:22:54.693Z,13.59
2023-04-25T06:25:22.823Z,13.59
2023-04-25T06:27:50.789Z,13.47
2023-04-25T06:30:23.312Z,13.50
2023-04-25T06:32:51.395Z,13.48
2023-04-25T06:35:21.030Z,13.49
2023-04-25T06:37:48.932Z,13.96
2023-04-25T06:40:18.531Z,14.42
2023-04-25T06:42:46.421Z,14.72
2023-04-25T06:45:14.564Z,14.80
2023-04-25T06:47:42.547Z,15.41
2023-04-25T06:50:11.978Z,15.99
2023-04-25T06:52:41.234Z,16.94
2023-04-25T06:55:10.018Z,17.18
2023-04-25T06:57:37.906Z,16.71
2023-04-25T07:00:10.087Z,16.08
2023-04-25T07:02:38.152Z,16.11
2023-04-25T07:05:06.852Z,15.48
2023-04-25T07:07:34.722Z,15.48
2023-04-25T07:10:04.186Z,15.35
2023-04-25T07:12:32.144Z,15.55
2023-04-25T07:15:00.020Z,16.02
2023-04-25T07:17:28.018Z,16.23
2023-04-25T07:19:55.989Z,16.54
2023-04-25T07:22:23.900Z,16.57
2023-04-25T07:24:51.790Z,16.14
2023-04-25T07:27:21.360Z,16.67
2023-04-25T07:29:49.328Z,16.90
2023-04-25T07:32:17.362Z,17.00
2023-04-25T07:34:45.581Z,16.25
2023-04-25T07:37:13.579Z,16.14
2023-04-25T07:39:41.531Z,15.87
2023-04-25T07:42:09.552Z,15.69
2023-04-25T07:44:39.800Z,15.54
2023-04-25T07:47:09.129Z,15.78
2023-04-25T07:49:37.527Z,16.07
2023-04-25T07:52:07.300Z,16.37
2023-04-25T07:54:35.483Z,15.73
2023-04-25T07:57:03.464Z,15.33
2023-04-25T07:59:31.719Z,15.89
2023-04-25T08:02:01.127Z,16.09
2023-04-25T08:04:29.668Z,16.32
2023-04-25T08:06:57.742Z,16.66
2023-04-25T08:09:25.832Z,17.00
2023-04-25T08:11:53.813Z,17.41
2023-04-25T08:14:21.843Z,17.50
2023-04-25T08:16:49.767Z,17.72
2023-04-25T08:19:19.062Z,17.82
2023-04-25T08:21:47.063Z,17.71
2023-04-25T08:24:15.067Z,17.98
2023-04-25T08:26:43.108Z,17.83
2023-04-25T08:29:10.995Z,17.87
2023-04-25T08:31:39.715Z,17.72
2023-04-25T08:34:07.908Z,18.24
2023-04-25T08:36:39.642Z,18.59
2023-04-25T08:39:08.265Z,18.47
2023-04-25T08:41:38.564Z,18.26
2023-04-25T08:44:11.131Z,17.79
2023-04-25T08:46:40.655Z,17.17
2023-04-25T08:49:10.032Z,17.27
2023-04-25T08:51:47.982Z,17.02
2023-04-25T08:54:30.185Z,16.91
2023-04-25T08:57:05.081Z,17.05
2023-04-25T08:59:35.184Z,17.15
2023-04-25T09:02:04.224Z,17.16
2023-04-25T09:04:33.158Z,17.15
2023-04-25T09:07:02.578Z,16.97
2023-04-25T09:09:31.535Z,16.79
2023-04-25T09:12:00.613Z,16.86
2023-04-25T09:14:29.124Z,16.76
2023-04-25T09:17:05.763Z,16.70
2023-04-25T09:19:41.054Z,16.93
2023-04-25T09:22:11.321Z,17.16
2023-04-25T09:24:41.693Z,17.06
2023-04-25T09:27:11.550Z,17.15
2023-04-25T09:29:41.663Z,17.34
2023-04-25T09:32:21.117Z,17.46
2023-04-25T09:34:50.601Z,17.42
2023-04-25T09:37:24.491Z,17.77
2023-04-25T09:39:55.134Z,18.20
2023-04-25T09:42:25.998Z,18.35
2023-04-25T09:44:55.278Z,18.57
2023-04-25T09:47:25.228Z,19.06
2023-04-25T09:49:54.408Z,19.46
2023-04-25T09:52:25.938Z,19.51
2023-04-25T09:54:54.866Z,19.16
2023-04-25T09:57:24.056Z,18.55
2023-04-25T09:59:53.175Z,18.57
2023-04-25T10:02:22.333Z,18.58
2023-04-25T10:04:53.695Z,19.02
2023-04-25T10:07:27.101Z,19.54
2023-04-25T10:10:00.739Z,19.59
2023-04-25T10:12:28.809Z,19.72
2023-04-25T10:14:57.214Z,19.88
2023-04-25T10:17:26.051Z,19.90
2023-04-25T10:19:54.947Z,19.71
2023-04-25T10:22:32.581Z,19.80
2023-04-25T10:25:01.166Z,19.85
2023-04-25T10:27:30.225Z,19.63
2023-04-25T10:30:06.304Z,18.94
2023-04-25T10:32:35.258Z,19.19
2023-04-25T10:35:13.543Z,19.65
2023-04-25T10:37:59.431Z,19.89
2023-04-25T10:40:27.976Z,19.99
2023-04-25T10:42:56.293Z,19.90
2023-04-25T10:45:24.624Z,19.59
2023-04-25T10:47:52.669Z,19.49
2023-04-25T10:50:20.764Z,18.88
2023-04-25T10:52:50.066Z,19.12
2023-04-25T10:55:18.075Z,18.84
2023-04-25T10:57:49.550Z,19.19
2023-04-25T11:00:19.847Z,19.57
2023-04-25T11:02:49.473Z,19.57
2023-04-25T11:05:30.241Z,19.83
2023-04-25T11:08:07.539Z,20.11
2023-04-25T11:10:37.465Z,20.06
2023-04-25T11:13:05.892Z,20.35
2023-04-25T11:15:33.902Z,20.11
2023-04-25T11:18:02.256Z,19.83
2023-04-25T11:20:30.641Z,19.59
2023-04-25T11:23:01.706Z,20.06
2023-04-25T11:25:31.366Z,20.37
2023-04-25T11:28:02.230Z,20.44
2023-04-25T11:30:31.678Z,20.49
2023-04-25T11:33:00.219Z,20.06
2023-04-25T11:35:28.245Z,19.63
2023-04-25T11:37:56.244Z,19.51
2023-04-25T11:40:25.935Z,19.75
2023-04-25T11:42:54.921Z,19.87
2023-04-25T11:45:25.317Z,19.98
2023-04-25T11:47:54.337Z,19.94
2023-04-25T11:50:22.446Z,19.67
2023-04-25T11:52:51.218Z,19.72
2023-04-25T11:55:20.784Z,19.73
2023-04-25T11:57:51.607Z,20.02
2023-04-25T12:00:21.866Z,20.36
2023-04-25T12:02:53.479Z,20.19
2023-04-25T12:05:32.091Z,20.24
2023-04-25T12:08:13.501Z,20.03
2023-04-25T12:10:42.389Z,20.08
2023-04-25T12:13:25.641Z,19.23
2023-04-25T12:15:54.089Z,18.84
2023-04-25T12:18:23.053Z,19.41
2023-04-25T12:20:51.148Z,19.83
2023-04-25T12:23:19.374Z,19.85
2023-04-25T12:25:48.226Z,19.54
2023-04-25T12:28:20.516Z,19.07
2023-04-25T12:30:58.511Z,19.46
2023-04-25T12:33:27.245Z,19.44
2023-04-25T12:35:55.216Z,19.66
2023-04-25T12:38:24.430Z,20.03
2023-04-25T12:40:52.429Z,19.64
2023-04-25T12:43:20.607Z,19.87
2023-04-25T12:45:51.091Z,19.76
2023-04-25T12:48:21.244Z,20.25
2023-04-25T12:50:50.183Z,20.62
2023-04-25T12:53:19.231Z,20.56
2023-04-25T12:55:48.102Z,20.48
2023-04-25T12:58:16.079Z,20.59
2023-04-25T13:00:44.438Z,20.24
2023-04-25T13:03:13.584Z,19.81
2023-04-25T13:05:44.723Z,19.39
2023-04-25T13:08:12.703Z,19.06
2023-04-25T13:10:41.240Z,18.95
2023-04-25T13:13:09.602Z,18.98
2023-04-25T13:15:37.704Z,18.96
2023-04-25T13:18:06.606Z,19.27
2023-04-25T13:20:34.828Z,19.14
2023-04-25T13:23:04.041Z,18.89
2023-04-25T13:25:31.939Z,18.91
2023-04-25T13:27:59.911Z,18.53
2023-04-25T13:30:27.942Z,18.31
2023-04-25T13:32:57.916Z,18.18
2023-04-25T13:35:26.823Z,18.01
2023-04-25T13:37:54.751Z,17.92
2023-04-25T13:40:25.478Z,17.89
2023-04-25T13:42:53.763Z,17.77
2023-04-25T13:45:21.911Z,17.69
2023-04-25T13:47:50.023Z,17.79
2023-04-25T13:50:18.163Z,17.66
2023-04-25T13:52:46.031Z,17.80
2023-04-25T13:55:13.937Z,17.78
2023-04-25T13:57:43.966Z,17.90
2023-04-25T14:00:13.050Z,18.23
2023-04-25T14:02:41.284Z,18.52
2023-04-25T14:05:10.403Z,19.13
2023-04-25T14:07:39.323Z,19.66
2023-04-25T14:10:08.668Z,19.93
2023-04-25T14:12:36.641Z,19.93
2023-04-25T14:15:07.359Z,19.94
2023-04-25T14:17:35.414Z,20.05
2023-04-25T14:20:03.411Z,20.10
2023-04-25T14:22:31.455Z,20.14
2023-04-25T14:24:59.411Z,20.21
2023-04-25T14:27:29.174Z,20.10
2023-04-25T14:29:57.467Z,19.96
2023-04-25T14:32:26.898Z,19.70
2023-04-25T14:34:54.854Z,19.82
2023-04-25T14:37:22.789Z,19.90
2023-04-25T14:39:50.798Z,20.16
2023-04-25T14:42:18.674Z,20.15
2023-04-25T14:44:46.807Z,19.72
2023-04-25T14:47:15.494Z,19.68
2023-04-25T14:49:44.870Z,20.15
2023-04-25T14:52:12.812Z,20.38
2023-04-25T14:54:41.044Z,20.31
2023-04-25T14:57:09.010Z,20.25
2023-04-25T14:59:36.951Z,19.97
2023-04-25T15:02:05.078Z,19.55
2023-04-25T15:04:33.632Z,19.36
2023-04-25T15:07:03.007Z,19.43
2023-04-25T15:09:30.967Z,19.40
2023-04-25T15:11:59.489Z,19.52
2023-04-25T15:14:27.553Z,19.28
2023-04-25T15:16:55.584Z,19.17
2023-04-25T15:19:23.659Z,19.21
2023-04-25T15:21:51.568Z,19.04
2023-04-25T15:24:20.864Z,19.30
2023-04-25T15:26:48.734Z,19.15
2023-04-25T15:29:16.862Z,19.00
2023-04-25T15:31:44.916Z,19.08
2023-04-25T15:34:12.988Z,19.05
2023-04-25T15:36:40.955Z,18.91
2023-04-25T15:39:09.961Z,18.68
2023-04-25T15:41:39.529Z,18.45
2023-04-25T15:44:08.591Z,18.35
2023-04-25T15:46:36.637Z,18.16
2023-04-25T15:49:04.614Z,18.11
2023-04-25T15:51:33.645Z,18.26
2023-04-25T15:54:02.706Z,18.23
2023-04-25T15:56:30.783Z,18.18
2023-04-25T15:59:00.065Z,18.31
2023-04-25T16:01:31.044Z,18.26
2023-04-25T16:03:59.790Z,18.35
2023-04-25T16:06:28.559Z,18.34
2023-04-25T16:08:57.146Z,18.26
2023-04-25T16:11:25.153Z,18.38
2023-04-25T16:13:53.401Z,18.32
2023-04-25T16:16:23.124Z,18.38
2023-04-25T16:18:51.190Z,18.23
2023-04-25T16:21:19.142Z,18.18
2023-04-25T16:23:47.074Z,18.27
2023-04-25T16:26:15.109Z,18.08
2023-04-25T16:28:43.094Z,18.19
2023-04-25T16:31:11.069Z,18.18
2023-04-25T16:33:40.494Z,18.14
2023-04-25T16:36:09.444Z,18.09
2023-04-25T16:38:39.704Z,17.98
2023-04-25T16:41:08.068Z,17.81
2023-04-25T16:43:36.349Z,17.81
2023-04-25T16:46:04.312Z,17.86
2023-04-25T16:48:32.190Z,17.87
2023-04-25T16:51:02.071Z,17.81
2023-04-25T16:53:30.091Z,17.81
2023-04-25T16:55:58.755Z,17.78
2023-04-25T16:58:27.266Z,17.83
2023-04-25T17:00:55.714Z,17.63
2023-04-25T17:03:24.024Z,17.44
2023-04-25T17:05:54.930Z,17.46
2023-04-25T17:08:24.249Z,17.26
2023-04-25T17:10:52.180Z,17.23
2023-04-25T17:13:20.123Z,17.32
2023-04-25T17:15:48.006Z,17.10
2023-04-25T17:18:16.001Z,17.05
2023-04-25T17:20:44.230Z,16.95
2023-04-25T17:23:12.824Z,16.91
2023-04-25T17:25:42.098Z,16.96
2023-04-25T17:28:10.057Z,16.92
2023-04-25T17:30:38.268Z,16.80
2023-04-25T17:33:07.227Z,16.76
2023-04-25T17:35:36.644Z,16.83
2023-04-25T17:38:05.239Z,16.85
2023-04-25T17:40:33.323Z,16.64
2023-04-25T17:43:02.617Z,16.74
2023-04-25T17:45:34.746Z,16.81
2023-04-25T17:48:03.879Z,16.76
2023-04-25T17:50:31.890Z,16.75
2023-04-25T17:52:59.826Z,16.69
2023-04-25T17:55:27.732Z,16.66
2023-04-25T17:57:56.529Z,16.73
2023-04-25T18:00:25.924Z,16.82
2023-04-25T18:02:53.904Z,16.88
2023-04-25T18:05:22.219Z,16.77
2023-04-25T18:07:50.182Z,16.72
2023-04-25T18:10:18.176Z,16.69
2023-04-25T18:12:46.195Z,16.65
2023-04-25T18:15:14.322Z,16.61
2023-04-25T18:17:43.784Z,16.60
2023-04-25T18:20:15.732Z,16.72
2023-04-25T18:22:44.635Z,16.39
2023-04-25T18:25:13.818Z,16.27
2023-04-25T18:27:42.544Z,16.35
2023-04-25T18:30:12.186Z,16.44
2023-04-25T18:32:40.275Z,16.50
2023-04-25T18:35:11.154Z,16.45
2023-04-25T18:37:40.387Z,16.35
2023-04-25T18:40:14.136Z,16.38
2023-04-25T18:42:43.110Z,16.29
2023-04-25T18:45:12.178Z,16.17
2023-04-25T18:47:40.604Z,16.17
2023-04-25T18:50:11.222Z,16.12
2023-04-25T18:52:39.167Z,16.21
2023-04-25T18:55:08.393Z,16.11
2023-04-25T18:57:36.291Z,16.03
2023-04-25T19:00:06.858Z,15.85
2023-04-25T19:02:37.012Z,15.85
2023-04-25T19:05:05.642Z,15.80
2023-04-25T19:07:34.971Z,15.77
2023-04-25T19:10:04.254Z,15.71
2023-04-25T19:12:33.472Z,15.74
2023-04-25T19:15:01.682Z,15.69
2023-04-25T19:17:30.528Z,15.50
2023-04-25T19:19:58.593Z,15.33
2023-04-25T19:22:27.429Z,15.33
2023-04-25T19:25:09.265Z,15.32
2023-04-25T19:27:38.803Z,15.34
2023-04-25T19:30:10.945Z,15.38
2023-04-25T19:32:39.453Z,15.29
2023-04-25T19:35:11.342Z,15.25
2023-04-25T19:37:45.923Z,15.25
2023-04-25T19:40:18.065Z,15.17
2023-04-25T19:42:46.437Z,15.30
2023-04-25T19:45:14.404Z,15.07
2023-04-25T19:47:43.780Z,15.14
2023-04-25T19:50:12.381Z,15.10
2023-04-25T19:52:41.449Z,15.05
2023-04-25T19:55:10.940Z,15.06
2023-04-25T19:57:40.330Z,15.02
2023-04-25T20:00:10.877Z,15.14
2023-04-25T20:02:39.515Z,15.10
2023-04-25T20:05:09.158Z,15.17
2023-04-25T20:07:37.250Z,14.92
2023-04-25T20:10:06.962Z,15.10
2023-04-25T20:12:37.210Z,14.87
2023-04-25T20:15:07.473Z,15.14
2023-04-25T20:17:35.412Z,15.07
2023-04-25T20:20:04.316Z,15.08
2023-04-25T20:22:36.176Z,14.97
2023-04-25T20:25:06.069Z,15.14
2023-04-25T20:27:34.374Z,15.07
2023-04-25T20:30:07.140Z,15.01
2023-04-25T20:32:36.780Z,14.97
2023-04-25T20:35:05.559Z,14.92
2023-04-25T20:37:33.790Z,14.90
2023-04-25T20:40:02.547Z,14.66
2023-04-25T20:42:32.025Z,14.70
2023-04-25T20:44:59.921Z,14.67
2023-04-25T20:47:28.431Z,14.76
2023-04-25T20:49:59.299Z,14.74
2023-04-25T20:52:27.223Z,14.72
2023-04-25T20:54:55.132Z,14.72
2023-04-25T20:57:23.515Z,14.64
2023-04-25T20:59:51.567Z,14.54
2023-04-25T21:02:20.763Z,14.50
2023-04-25T21:04:48.766Z,14.23
2023-04-25T21:07:18.260Z,14.07
2023-04-25T21:09:46.238Z,13.96
2023-04-25T21:12:14.173Z,14.00
2023-04-25T21:14:42.101Z,13.74
2023-04-25T21:17:10.110Z,13.68
2023-04-25T21:19:38.022Z,13.76
2023-04-25T21:22:06.159Z,13.46
2023-04-25T21:24:35.508Z,13.37
2023-04-25T21:27:03.445Z,13.39
2023-04-25T21:29:31.466Z,13.52
2023-04-25T21:31:59.483Z,13.43
2023-04-25T21:34:27.646Z,13.42
2023-04-25T21:36:56.541Z,13.38
2023-04-25T21:39:25.168Z,13.40
2023-04-25T21:41:54.671Z,13.07
2023-04-25T21:44:22.864Z,13.09
2023-04-25T21:46:51.074Z,13.13
2023-04-25T21:49:18.960Z,13.04
2023-04-25T21:51:46.862Z,12.96
2023-04-25T21:54:14.791Z,13.07
2023-04-25T21:56:42.679Z,13.02
2023-04-25T21:59:12.059Z,12.83
2023-04-25T22:01:39.966Z,12.78
2023-04-25T22:04:08.078Z,12.77
2023-04-25T22:06:36.664Z,12.63
2023-04-25T22:09:05.321Z,12.78
2023-04-25T22:11:33.685Z,12.67
2023-04-25T22:14:02.049Z,12.67
2023-04-25T22:16:31.408Z,12.78
2023-04-25T22:18:59.524Z,12.75
2023-04-25T22:21:28.065Z,12.76
2023-04-25T22:23:56.739Z,12.61
2023-04-25T22:26:25.511Z,12.67
2023-04-25T22:28:53.688Z,12.31
2023-04-25T22:31:21.851Z,12.15
2023-04-25T22:33:51.369Z,12.02
2023-04-25T22:36:19.647Z,11.81
2023-04-25T22:38:47.791Z,11.85
2023-04-25T22:41:15.864Z,11.74
2023-04-25T22:43:43.820Z,11.69
2023-04-25T22:46:17.120Z,11.59
2023-04-25T22:48:45.648Z,11.70
2023-04-25T22:51:15.642Z,11.68
2023-04-25T22:53:45.319Z,11.66
2023-04-25T22:56:14.279Z,11.64
2023-04-25T22:58:43.184Z,11.75
2023-04-25T23:01:11.417Z,11.81
2023-04-25T23:03:40.416Z,11.84
2023-04-25T23:06:08.684Z,11.85
2023-04-25T23:08:38.111Z,11.90
2023-04-25T23:11:08.006Z,11.76
2023-04-25T23:13:36.673Z,11.80
2023-04-25T23:16:09.000Z,11.81
2023-04-25T23:18:37.402Z,11.83
2023-04-25T23:21:07.639Z,11.82
2023-04-25T23:23:36.958Z,11.70
2023-04-25T23:26:08.813Z,11.77
2023-04-25T23:28:39.850Z,11.75
2023-04-25T23:31:10.575Z,11.74
2023-04-25T23:33:39.356Z,11.78
2023-04-25T23:36:08.551Z,11.76
2023-04-25T23:38:37.944Z,11.77
2023-04-25T23:41:05.800Z,11.80
2023-04-25T23:43:33.743Z,11.83
2023-04-25T23:46:01.761Z,11.75
2023-04-25T23:48:29.696Z,11.72
2023-04-25T23:50:57.584Z,11.81
2023-04-25T23:53:25.545Z,11.93
2023-04-25T23:55:54.761Z,12.04
2023-04-25T23:58:22.618Z,12.02
